sensor_id;sensor_type;location;lat;lon;timestamp;temperature;humidity
4526;DHT22;2275;52.208;8.804;2022-07-23T00:00:15;15.60;99.90
4526;DHT22;2275;52.208;8.804;2022-07-23T00:02:42;15.50;99.90
4526;DHT22;2275;52.208;8.804;2022-07-23T00:05:10;15.50;99.90
4526;DHT22;2275;52.208;8.804;2022-07-23T00:07:37;15.50;99.90
4526;DHT22;2275;52.208;8.804;2022-07-23T00:10:05;15.50;99.90
4526;DHT22;2275;52.208;8.804;2022-07-23T00:12:32;15.40;99.90
4526;DHT22;2275;52.208;8.804;2022-07-23T00:14:59;15.50;99.90
4526;DHT22;2275;52.208;8.804;2022-07-23T00:17:27;15.50;99.90
4526;DHT22;2275;52.208;8.804;2022-07-23T00:19:56;15.50;99.90
4526;DHT22;2275;52.208;8.804;2022-07-23T00:22:23;15.50;99.90
4526;DHT22;2275;52.208;8.804;2022-07-23T00:24:50;15.40;99.90
4526;DHT22;2275;52.208;8.804;2022-07-23T00:27:17;15.40;99.90
4526;DHT22;2275;52.208;8.804;2022-07-23T00:29:44;15.30;99.90
4526;DHT22;2275;52.208;8.804;2022-07-23T00:32:12;15.40;99.90
4526;DHT22;2275;52.208;8.804;2022-07-23T00:34:39;15.40;99.90
4526;DHT22;2275;52.208;8.804;2022-07-23T00:37:07;15.30;99.90
4526;DHT22;2275;52.208;8.804;2022-07-23T00:39:34;15.30;99.90
4526;DHT22;2275;52.208;8.804;2022-07-23T00:42:02;15.30;99.90
4526;DHT22;2275;52.208;8.804;2022-07-23T00:44:30;15.30;99.90
4526;DHT22;2275;52.208;8.804;2022-07-23T00:46:58;15.30;99.90
4526;DHT22;2275;52.208;8.804;2022-07-23T00:49:28;15.30;99.90
4526;DHT22;2275;52.208;8.804;2022-07-23T00:51:54;15.40;99.90
4526;DHT22;2275;52.208;8.804;2022-07-23T00:54:22;15.40;99.90
4526;DHT22;2275;52.208;8.804;2022-07-23T00:56:48;15.40;99.90
4526;DHT22;2275;52.208;8.804;2022-07-23T00:59:15;15.40;99.90
4526;DHT22;2275;52.208;8.804;2022-07-23T01:01:43;15.40;99.90
4526;DHT22;2275;52.208;8.804;2022-07-23T01:04:11;15.40;99.90
4526;DHT22;2275;52.208;8.804;2022-07-23T01:06:38;15.40;99.90
4526;DHT22;2275;52.208;8.804;2022-07-23T01:09:05;15.40;99.90
4526;DHT22;2275;52.208;8.804;2022-07-23T01:11:34;15.40;99.90
4526;DHT22;2275;52.208;8.804;2022-07-23T01:14:16;15.50;99.90
4526;DHT22;2275;52.208;8.804;2022-07-23T01:16:44;15.50;99.90
4526;DHT22;2275;52.208;8.804;2022-07-23T01:19:11;15.50;99.90
4526;DHT22;2275;52.208;8.804;2022-07-23T01:21:41;15.60;99.90
4526;DHT22;2275;52.208;8.804;2022-07-23T01:24:07;15.50;99.90
4526;DHT22;2275;52.208;8.804;2022-07-23T01:26:34;15.50;99.90
4526;DHT22;2275;52.208;8.804;2022-07-23T01:29:01;15.60;99.90
4526;DHT22;2275;52.208;8.804;2022-07-23T01:31:28;15.60;99.90
4526;DHT22;2275;52.208;8.804;2022-07-23T01:33:55;15.60;99.90
4526;DHT22;2275;52.208;8.804;2022-07-23T01:36:22;15.60;99.90
4526;DHT22;2275;52.208;8.804;2022-07-23T01:38:50;15.60;99.90
4526;DHT22;2275;52.208;8.804;2022-07-23T01:41:17;15.60;99.90
4526;DHT22;2275;52.208;8.804;2022-07-23T01:43:45;15.60;99.90
4526;DHT22;2275;52.208;8.804;2022-07-23T01:46:13;15.60;99.90
4526;DHT22;2275;52.208;8.804;2022-07-23T01:48:40;15.70;99.90
4526;DHT22;2275;52.208;8.804;2022-07-23T01:51:07;15.70;99.90
4526;DHT22;2275;52.208;8.804;2022-07-23T01:53:35;15.70;99.90
4526;DHT22;2275;52.208;8.804;2022-07-23T01:56:02;15.70;99.90
4526;DHT22;2275;52.208;8.804;2022-07-23T01:58:30;15.80;99.90
4526;DHT22;2275;52.208;8.804;2022-07-23T02:00:57;15.70;99.90
4526;DHT22;2275;52.208;8.804;2022-07-23T02:03:26;15.80;99.90
4526;DHT22;2275;52.208;8.804;2022-07-23T02:05:54;15.70;99.90
4526;DHT22;2275;52.208;8.804;2022-07-23T02:08:21;15.70;99.90
4526;DHT22;2275;52.208;8.804;2022-07-23T02:10:50;15.70;99.90
4526;DHT22;2275;52.208;8.804;2022-07-23T02:13:18;15.70;99.90
4526;DHT22;2275;52.208;8.804;2022-07-23T02:15:46;15.70;99.90
4526;DHT22;2275;52.208;8.804;2022-07-23T02:18:13;15.70;99.90
4526;DHT22;2275;52.208;8.804;2022-07-23T02:20:40;15.60;99.90
4526;DHT22;2275;52.208;8.804;2022-07-23T02:23:08;15.60;99.90
4526;DHT22;2275;52.208;8.804;2022-07-23T02:25:35;15.60;99.90
4526;DHT22;2275;52.208;8.804;2022-07-23T02:28:02;15.60;99.90
4526;DHT22;2275;52.208;8.804;2022-07-23T02:30:29;15.60;99.90
4526;DHT22;2275;52.208;8.804;2022-07-23T02:32:57;15.60;99.90
4526;DHT22;2275;52.208;8.804;2022-07-23T02:35:24;15.50;99.90
4526;DHT22;2275;52.208;8.804;2022-07-23T02:37:52;15.50;99.90
4526;DHT22;2275;52.208;8.804;2022-07-23T02:40:19;15.50;99.90
4526;DHT22;2275;52.208;8.804;2022-07-23T02:42:46;15.50;99.90
4526;DHT22;2275;52.208;8.804;2022-07-23T02:45:14;15.60;99.90
4526;DHT22;2275;52.208;8.804;2022-07-23T02:47:41;15.50;99.90
4526;DHT22;2275;52.208;8.804;2022-07-23T02:50:08;15.40;99.90
4526;DHT22;2275;52.208;8.804;2022-07-23T02:52:35;15.40;99.90
4526;DHT22;2275;52.208;8.804;2022-07-23T02:55:03;15.40;99.90
4526;DHT22;2275;52.208;8.804;2022-07-23T02:57:30;15.40;99.90
4526;DHT22;2275;52.208;8.804;2022-07-23T02:59:57;15.30;99.90
4526;DHT22;2275;52.208;8.804;2022-07-23T03:02:24;15.20;99.90
4526;DHT22;2275;52.208;8.804;2022-07-23T03:04:52;15.20;99.90
4526;DHT22;2275;52.208;8.804;2022-07-23T03:07:19;15.20;99.90
4526;DHT22;2275;52.208;8.804;2022-07-23T03:09:47;15.10;99.90
4526;DHT22;2275;52.208;8.804;2022-07-23T03:12:14;15.10;99.90
4526;DHT22;2275;52.208;8.804;2022-07-23T03:14:41;15.10;99.90
4526;DHT22;2275;52.208;8.804;2022-07-23T03:17:09;15.10;99.90
4526;DHT22;2275;52.208;8.804;2022-07-23T03:19:37;15.10;99.90
4526;DHT22;2275;52.208;8.804;2022-07-23T03:22:05;15.20;99.90
4526;DHT22;2275;52.208;8.804;2022-07-23T03:24:32;15.20;99.90
4526;DHT22;2275;52.208;8.804;2022-07-23T03:27:05;15.20;99.90
4526;DHT22;2275;52.208;8.804;2022-07-23T03:29:32;15.20;99.90
4526;DHT22;2275;52.208;8.804;2022-07-23T03:31:59;15.10;99.90
4526;DHT22;2275;52.208;8.804;2022-07-23T03:34:26;15.00;99.90
4526;DHT22;2275;52.208;8.804;2022-07-23T03:36:53;15.10;99.90
4526;DHT22;2275;52.208;8.804;2022-07-23T03:39:21;15.10;99.90
4526;DHT22;2275;52.208;8.804;2022-07-23T03:41:47;15.10;99.90
4526;DHT22;2275;52.208;8.804;2022-07-23T03:44:15;15.10;99.90
4526;DHT22;2275;52.208;8.804;2022-07-23T03:46:42;15.10;99.90
4526;DHT22;2275;52.208;8.804;2022-07-23T03:49:09;15.10;99.90
4526;DHT22;2275;52.208;8.804;2022-07-23T03:51:36;15.10;99.90
4526;DHT22;2275;52.208;8.804;2022-07-23T03:54:03;15.20;99.90
4526;DHT22;2275;52.208;8.804;2022-07-23T03:56:30;15.20;99.90
4526;DHT22;2275;52.208;8.804;2022-07-23T03:58:57;15.20;99.90
4526;DHT22;2275;52.208;8.804;2022-07-23T04:01:24;15.20;99.90
4526;DHT22;2275;52.208;8.804;2022-07-23T04:03:51;15.20;99.90
4526;DHT22;2275;52.208;8.804;2022-07-23T04:06:19;15.30;99.90
4526;DHT22;2275;52.208;8.804;2022-07-23T04:08:46;15.30;99.90
4526;DHT22;2275;52.208;8.804;2022-07-23T04:11:13;15.30;99.90
4526;DHT22;2275;52.208;8.804;2022-07-23T04:13:40;15.40;99.90
4526;DHT22;2275;52.208;8.804;2022-07-23T04:16:08;15.40;99.90
4526;DHT22;2275;52.208;8.804;2022-07-23T04:18:35;15.40;99.90
4526;DHT22;2275;52.208;8.804;2022-07-23T04:21:02;15.40;99.90
4526;DHT22;2275;52.208;8.804;2022-07-23T04:23:30;15.40;99.90
4526;DHT22;2275;52.208;8.804;2022-07-23T04:25:57;15.40;99.90
4526;DHT22;2275;52.208;8.804;2022-07-23T04:28:24;15.40;99.90
4526;DHT22;2275;52.208;8.804;2022-07-23T04:30:51;15.40;99.90
4526;DHT22;2275;52.208;8.804;2022-07-23T04:33:19;15.50;99.90
4526;DHT22;2275;52.208;8.804;2022-07-23T04:35:47;15.50;99.90
4526;DHT22;2275;52.208;8.804;2022-07-23T04:38:14;15.60;99.90
4526;DHT22;2275;52.208;8.804;2022-07-23T04:40:40;15.60;99.90
4526;DHT22;2275;52.208;8.804;2022-07-23T04:43:08;15.60;99.90
4526;DHT22;2275;52.208;8.804;2022-07-23T04:45:35;15.60;99.90
4526;DHT22;2275;52.208;8.804;2022-07-23T04:48:03;15.60;99.90
4526;DHT22;2275;52.208;8.804;2022-07-23T04:50:30;15.60;99.90
4526;DHT22;2275;52.208;8.804;2022-07-23T04:52:57;15.60;99.90
4526;DHT22;2275;52.208;8.804;2022-07-23T04:55:24;15.60;99.90
4526;DHT22;2275;52.208;8.804;2022-07-23T04:57:51;15.60;99.90
4526;DHT22;2275;52.208;8.804;2022-07-23T05:00:18;15.60;99.90
4526;DHT22;2275;52.208;8.804;2022-07-23T05:02:45;15.60;99.90
4526;DHT22;2275;52.208;8.804;2022-07-23T05:05:14;15.60;99.90
4526;DHT22;2275;52.208;8.804;2022-07-23T05:07:41;15.60;99.90
4526;DHT22;2275;52.208;8.804;2022-07-23T05:10:08;15.70;99.90
4526;DHT22;2275;52.208;8.804;2022-07-23T05:12:37;15.80;99.90
4526;DHT22;2275;52.208;8.804;2022-07-23T05:15:04;15.80;99.90
4526;DHT22;2275;52.208;8.804;2022-07-23T05:17:31;15.80;99.90
4526;DHT22;2275;52.208;8.804;2022-07-23T05:19:59;15.80;99.90
4526;DHT22;2275;52.208;8.804;2022-07-23T05:22:27;15.80;99.90
4526;DHT22;2275;52.208;8.804;2022-07-23T05:24:55;15.80;99.90
4526;DHT22;2275;52.208;8.804;2022-07-23T05:27:22;15.80;99.90
4526;DHT22;2275;52.208;8.804;2022-07-23T05:29:49;15.80;99.90
4526;DHT22;2275;52.208;8.804;2022-07-23T05:32:16;15.80;99.90
4526;DHT22;2275;52.208;8.804;2022-07-23T05:34:43;15.80;99.90
4526;DHT22;2275;52.208;8.804;2022-07-23T05:37:10;15.80;99.90
4526;DHT22;2275;52.208;8.804;2022-07-23T05:39:37;15.80;99.90
4526;DHT22;2275;52.208;8.804;2022-07-23T05:42:05;15.90;99.90
4526;DHT22;2275;52.208;8.804;2022-07-23T05:44:32;15.80;99.90
4526;DHT22;2275;52.208;8.804;2022-07-23T05:46:59;15.80;99.90
4526;DHT22;2275;52.208;8.804;2022-07-23T05:49:26;15.90;99.90
4526;DHT22;2275;52.208;8.804;2022-07-23T05:51:54;15.70;99.90
4526;DHT22;2275;52.208;8.804;2022-07-23T05:54:21;15.70;99.90
4526;DHT22;2275;52.208;8.804;2022-07-23T05:56:48;15.70;99.90
4526;DHT22;2275;52.208;8.804;2022-07-23T05:59:16;15.80;99.90
4526;DHT22;2275;52.208;8.804;2022-07-23T06:01:43;15.80;99.90
4526;DHT22;2275;52.208;8.804;2022-07-23T06:04:10;15.70;99.90
4526;DHT22;2275;52.208;8.804;2022-07-23T06:06:37;15.80;99.90
4526;DHT22;2275;52.208;8.804;2022-07-23T06:09:04;15.80;99.90
4526;DHT22;2275;52.208;8.804;2022-07-23T06:11:32;15.90;99.90
4526;DHT22;2275;52.208;8.804;2022-07-23T06:13:59;15.90;99.90
4526;DHT22;2275;52.208;8.804;2022-07-23T06:16:26;15.90;99.90
4526;DHT22;2275;52.208;8.804;2022-07-23T06:18:54;16.00;99.90
4526;DHT22;2275;52.208;8.804;2022-07-23T06:21:21;16.00;99.90
4526;DHT22;2275;52.208;8.804;2022-07-23T06:23:48;16.10;99.90
4526;DHT22;2275;52.208;8.804;2022-07-23T06:26:15;16.10;99.90
4526;DHT22;2275;52.208;8.804;2022-07-23T06:28:42;16.10;99.90
4526;DHT22;2275;52.208;8.804;2022-07-23T06:31:11;16.20;99.90
4526;DHT22;2275;52.208;8.804;2022-07-23T06:33:39;16.30;99.90
4526;DHT22;2275;52.208;8.804;2022-07-23T06:36:07;16.30;99.90
4526;DHT22;2275;52.208;8.804;2022-07-23T06:38:35;16.30;99.90
4526;DHT22;2275;52.208;8.804;2022-07-23T06:41:06;16.30;99.90
4526;DHT22;2275;52.208;8.804;2022-07-23T06:43:34;16.20;99.90
4526;DHT22;2275;52.208;8.804;2022-07-23T06:46:01;16.40;99.90
4526;DHT22;2275;52.208;8.804;2022-07-23T06:48:28;16.40;99.90
4526;DHT22;2275;52.208;8.804;2022-07-23T06:50:55;16.50;99.90
4526;DHT22;2275;52.208;8.804;2022-07-23T06:53:23;16.80;99.90
4526;DHT22;2275;52.208;8.804;2022-07-23T06:55:51;16.80;99.90
4526;DHT22;2275;52.208;8.804;2022-07-23T06:58:18;16.80;99.90
4526;DHT22;2275;52.208;8.804;2022-07-23T07:00:46;16.90;99.90
4526;DHT22;2275;52.208;8.804;2022-07-23T07:03:13;16.90;99.90
4526;DHT22;2275;52.208;8.804;2022-07-23T07:05:40;16.90;99.90
4526;DHT22;2275;52.208;8.804;2022-07-23T07:08:07;17.00;99.90
4526;DHT22;2275;52.208;8.804;2022-07-23T07:10:34;17.10;99.90
4526;DHT22;2275;52.208;8.804;2022-07-23T07:13:01;17.10;99.90
4526;DHT22;2275;52.208;8.804;2022-07-23T07:15:28;17.10;99.90
4526;DHT22;2275;52.208;8.804;2022-07-23T07:17:56;17.20;99.90
4526;DHT22;2275;52.208;8.804;2022-07-23T07:20:23;17.30;99.90
4526;DHT22;2275;52.208;8.804;2022-07-23T07:22:50;17.50;99.90
4526;DHT22;2275;52.208;8.804;2022-07-23T07:25:17;17.50;99.90
4526;DHT22;2275;52.208;8.804;2022-07-23T07:27:45;17.80;99.90
4526;DHT22;2275;52.208;8.804;2022-07-23T07:30:13;17.80;99.90
4526;DHT22;2275;52.208;8.804;2022-07-23T07:32:41;17.80;99.90
4526;DHT22;2275;52.208;8.804;2022-07-23T07:35:08;17.90;99.90
4526;DHT22;2275;52.208;8.804;2022-07-23T07:37:37;17.70;99.90
4526;DHT22;2275;52.208;8.804;2022-07-23T07:40:05;17.70;99.90
4526;DHT22;2275;52.208;8.804;2022-07-23T07:42:33;17.60;99.90
4526;DHT22;2275;52.208;8.804;2022-07-23T07:45:00;17.60;99.90
4526;DHT22;2275;52.208;8.804;2022-07-23T07:47:28;17.60;99.90
4526;DHT22;2275;52.208;8.804;2022-07-23T07:49:55;17.80;99.90
4526;DHT22;2275;52.208;8.804;2022-07-23T07:52:24;18.10;99.90
4526;DHT22;2275;52.208;8.804;2022-07-23T07:54:51;18.10;99.90
4526;DHT22;2275;52.208;8.804;2022-07-23T07:57:18;18.30;99.90
4526;DHT22;2275;52.208;8.804;2022-07-23T07:59:45;18.30;99.90
4526;DHT22;2275;52.208;8.804;2022-07-23T08:02:13;18.30;99.90
4526;DHT22;2275;52.208;8.804;2022-07-23T08:04:41;18.30;99.90
4526;DHT22;2275;52.208;8.804;2022-07-23T08:07:09;18.30;99.90
4526;DHT22;2275;52.208;8.804;2022-07-23T08:09:36;18.20;99.90
4526;DHT22;2275;52.208;8.804;2022-07-23T08:12:03;18.20;99.90
4526;DHT22;2275;52.208;8.804;2022-07-23T08:14:32;18.20;99.90
4526;DHT22;2275;52.208;8.804;2022-07-23T08:17:01;18.20;99.90
4526;DHT22;2275;52.208;8.804;2022-07-23T08:19:27;18.10;99.90
4526;DHT22;2275;52.208;8.804;2022-07-23T08:21:55;18.30;99.90
4526;DHT22;2275;52.208;8.804;2022-07-23T08:24:22;18.50;99.90
4526;DHT22;2275;52.208;8.804;2022-07-23T08:26:49;18.60;99.90
4526;DHT22;2275;52.208;8.804;2022-07-23T08:29:16;18.80;99.90
4526;DHT22;2275;52.208;8.804;2022-07-23T08:31:45;18.60;99.90
4526;DHT22;2275;52.208;8.804;2022-07-23T08:34:11;18.60;99.90
4526;DHT22;2275;52.208;8.804;2022-07-23T08:36:38;18.70;99.90
4526;DHT22;2275;52.208;8.804;2022-07-23T08:39:06;18.70;99.90
4526;DHT22;2275;52.208;8.804;2022-07-23T08:41:33;18.90;99.90
4526;DHT22;2275;52.208;8.804;2022-07-23T08:44:00;19.00;99.90
4526;DHT22;2275;52.208;8.804;2022-07-23T08:46:27;19.20;99.90
4526;DHT22;2275;52.208;8.804;2022-07-23T08:48:54;19.50;99.90
4526;DHT22;2275;52.208;8.804;2022-07-23T08:51:22;19.50;99.90
4526;DHT22;2275;52.208;8.804;2022-07-23T08:53:50;19.40;99.90
4526;DHT22;2275;52.208;8.804;2022-07-23T08:56:17;19.20;99.90
4526;DHT22;2275;52.208;8.804;2022-07-23T08:58:43;19.00;99.90
4526;DHT22;2275;52.208;8.804;2022-07-23T09:01:11;19.10;99.90
4526;DHT22;2275;52.208;8.804;2022-07-23T09:03:38;19.20;99.90
4526;DHT22;2275;52.208;8.804;2022-07-23T09:06:06;19.30;99.90
4526;DHT22;2275;52.208;8.804;2022-07-23T09:08:35;19.50;99.90
4526;DHT22;2275;52.208;8.804;2022-07-23T09:11:02;19.70;99.90
4526;DHT22;2275;52.208;8.804;2022-07-23T09:13:33;19.60;99.90
4526;DHT22;2275;52.208;8.804;2022-07-23T09:16:03;19.40;99.90
4526;DHT22;2275;52.208;8.804;2022-07-23T09:18:41;19.40;99.90
4526;DHT22;2275;52.208;8.804;2022-07-23T09:21:14;19.30;99.90
4526;DHT22;2275;52.208;8.804;2022-07-23T09:23:56;19.30;99.90
4526;DHT22;2275;52.208;8.804;2022-07-23T09:26:28;19.50;99.90
4526;DHT22;2275;52.208;8.804;2022-07-23T09:29:03;19.70;99.90
4526;DHT22;2275;52.208;8.804;2022-07-23T09:31:32;19.90;99.90
4526;DHT22;2275;52.208;8.804;2022-07-23T09:34:18;20.00;99.90
4526;DHT22;2275;52.208;8.804;2022-07-23T09:36:44;20.00;99.90
4526;DHT22;2275;52.208;8.804;2022-07-23T09:39:12;19.90;99.90
4526;DHT22;2275;52.208;8.804;2022-07-23T09:41:45;19.80;99.90
4526;DHT22;2275;52.208;8.804;2022-07-23T09:44:14;19.80;99.90
4526;DHT22;2275;52.208;8.804;2022-07-23T09:46:40;19.90;99.90
4526;DHT22;2275;52.208;8.804;2022-07-23T09:49:11;20.00;99.90
4526;DHT22;2275;52.208;8.804;2022-07-23T09:51:46;20.20;99.90
4526;DHT22;2275;52.208;8.804;2022-07-23T09:54:29;20.30;99.90
4526;DHT22;2275;52.208;8.804;2022-07-23T09:56:56;20.30;99.90
4526;DHT22;2275;52.208;8.804;2022-07-23T09:59:25;20.50;99.90
4526;DHT22;2275;52.208;8.804;2022-07-23T10:01:51;20.70;99.90
4526;DHT22;2275;52.208;8.804;2022-07-23T10:04:18;21.30;99.90
4526;DHT22;2275;52.208;8.804;2022-07-23T10:06:45;23.50;99.90
4526;DHT22;2275;52.208;8.804;2022-07-23T10:09:13;26.60;99.90
4526;DHT22;2275;52.208;8.804;2022-07-23T10:11:41;29.60;98.50
4526;DHT22;2275;52.208;8.804;2022-07-23T10:14:08;29.50;98.40
4526;DHT22;2275;52.208;8.804;2022-07-23T10:16:35;28.60;96.50
4526;DHT22;2275;52.208;8.804;2022-07-23T10:19:02;27.70;99.30
4526;DHT22;2275;52.208;8.804;2022-07-23T10:21:37;27.30;98.80
4526;DHT22;2275;52.208;8.804;2022-07-23T10:29:42;28.70;93.60
4526;DHT22;2275;52.208;8.804;2022-07-23T10:37:28;31.20;85.20
4526;DHT22;2275;52.208;8.804;2022-07-23T10:42:33;32.30;79.20
4526;DHT22;2275;52.208;8.804;2022-07-23T10:44:59;32.90;73.20
4526;DHT22;2275;52.208;8.804;2022-07-23T10:47:33;32.90;68.20
4526;DHT22;2275;52.208;8.804;2022-07-23T10:52:54;33.50;64.80
4526;DHT22;2275;52.208;8.804;2022-07-23T10:55:40;33.00;63.60
4526;DHT22;2275;52.208;8.804;2022-07-23T10:58:07;33.50;62.90
4526;DHT22;2275;52.208;8.804;2022-07-23T11:00:34;33.80;60.20
4526;DHT22;2275;52.208;8.804;2022-07-23T11:03:02;33.40;60.80
4526;DHT22;2275;52.208;8.804;2022-07-23T11:05:40;33.50;59.80
4526;DHT22;2275;52.208;8.804;2022-07-23T11:08:17;33.10;60.80
4526;DHT22;2275;52.208;8.804;2022-07-23T11:10:46;32.70;61.70
4526;DHT22;2275;52.208;8.804;2022-07-23T11:13:37;32.70;60.50
4526;DHT22;2275;52.208;8.804;2022-07-23T11:16:05;33.00;60.50
4526;DHT22;2275;52.208;8.804;2022-07-23T11:18:55;32.10;61.60
4526;DHT22;2275;52.208;8.804;2022-07-23T11:24:13;30.00;67.20
4526;DHT22;2275;52.208;8.804;2022-07-23T11:26:44;27.60;76.10
4526;DHT22;2275;52.208;8.804;2022-07-23T11:31:52;26.10;82.70
4526;DHT22;2275;52.208;8.804;2022-07-23T11:34:30;27.10;80.40
4526;DHT22;2275;52.208;8.804;2022-07-23T11:36:57;28.30;75.50
4526;DHT22;2275;52.208;8.804;2022-07-23T11:39:25;29.30;70.30
4526;DHT22;2275;52.208;8.804;2022-07-23T11:41:51;30.10;70.40
4526;DHT22;2275;52.208;8.804;2022-07-23T11:44:25;30.70;65.80
4526;DHT22;2275;52.208;8.804;2022-07-23T11:46:56;30.90;65.60
4526;DHT22;2275;52.208;8.804;2022-07-23T11:49:23;30.10;67.30
4526;DHT22;2275;52.208;8.804;2022-07-23T11:54:30;29.80;70.30
4526;DHT22;2275;52.208;8.804;2022-07-23T11:56:58;29.80;70.20
4526;DHT22;2275;52.208;8.804;2022-07-23T12:02:32;29.70;69.30
4526;DHT22;2275;52.208;8.804;2022-07-23T12:05:00;29.20;71.20
4526;DHT22;2275;52.208;8.804;2022-07-23T12:07:36;28.60;73.10
4526;DHT22;2275;52.208;8.804;2022-07-23T12:10:41;28.10;72.60
4526;DHT22;2275;52.208;8.804;2022-07-23T12:12:56;27.90;73.90
4526;DHT22;2275;52.208;8.804;2022-07-23T12:15:27;27.50;76.50
4526;DHT22;2275;52.208;8.804;2022-07-23T12:17:54;27.50;76.40
4526;DHT22;2275;52.208;8.804;2022-07-23T12:20:23;27.60;77.80
4526;DHT22;2275;52.208;8.804;2022-07-23T12:22:52;27.60;77.70
4526;DHT22;2275;52.208;8.804;2022-07-23T12:25:21;27.60;77.10
4526;DHT22;2275;52.208;8.804;2022-07-23T12:27:58;27.20;79.70
4526;DHT22;2275;52.208;8.804;2022-07-23T12:30:17;27.20;79.90
4526;DHT22;2275;52.208;8.804;2022-07-23T12:32:44;27.10;79.20
4526;DHT22;2275;52.208;8.804;2022-07-23T12:35:11;26.80;81.30
4526;DHT22;2275;52.208;8.804;2022-07-23T12:37:39;26.40;82.50
4526;DHT22;2275;52.208;8.804;2022-07-23T12:42:59;26.60;83.70
4526;DHT22;2275;52.208;8.804;2022-07-23T12:45:41;26.60;81.30
4526;DHT22;2275;52.208;8.804;2022-07-23T12:48:05;26.70;83.90
4526;DHT22;2275;52.208;8.804;2022-07-23T12:50:36;26.70;81.80
4526;DHT22;2275;52.208;8.804;2022-07-23T12:53:04;26.70;84.50
4526;DHT22;2275;52.208;8.804;2022-07-23T12:55:31;26.80;82.50
4526;DHT22;2275;52.208;8.804;2022-07-23T12:58:04;26.90;82.20
4526;DHT22;2275;52.208;8.804;2022-07-23T13:00:31;26.20;83.80
4526;DHT22;2275;52.208;8.804;2022-07-23T13:02:58;26.10;84.70
4526;DHT22;2275;52.208;8.804;2022-07-23T13:05:25;26.20;85.30
4526;DHT22;2275;52.208;8.804;2022-07-23T13:07:52;26.10;85.40
4526;DHT22;2275;52.208;8.804;2022-07-23T13:10:19;26.30;84.80
4526;DHT22;2275;52.208;8.804;2022-07-23T13:12:47;26.60;86.30
4526;DHT22;2275;52.208;8.804;2022-07-23T13:15:14;26.50;85.90
4526;DHT22;2275;52.208;8.804;2022-07-23T13:17:41;26.60;84.10
4526;DHT22;2275;52.208;8.804;2022-07-23T13:20:09;26.70;84.80
4526;DHT22;2275;52.208;8.804;2022-07-23T13:22:36;27.00;82.70
4526;DHT22;2275;52.208;8.804;2022-07-23T13:25:09;26.90;83.00
4526;DHT22;2275;52.208;8.804;2022-07-23T13:27:35;26.60;85.10
4526;DHT22;2275;52.208;8.804;2022-07-23T13:30:03;26.10;85.60
4526;DHT22;2275;52.208;8.804;2022-07-23T13:32:33;25.50;87.20
4526;DHT22;2275;52.208;8.804;2022-07-23T13:35:04;25.50;88.50
4526;DHT22;2275;52.208;8.804;2022-07-23T13:37:32;25.50;86.50
4526;DHT22;2275;52.208;8.804;2022-07-23T13:39:59;25.60;86.30
4526;DHT22;2275;52.208;8.804;2022-07-23T13:42:27;25.90;85.60
4526;DHT22;2275;52.208;8.804;2022-07-23T13:44:56;25.90;85.60
4526;DHT22;2275;52.208;8.804;2022-07-23T13:47:23;26.10;85.80
4526;DHT22;2275;52.208;8.804;2022-07-23T13:49:50;25.60;86.30
4526;DHT22;2275;52.208;8.804;2022-07-23T13:52:17;25.00;89.50
4526;DHT22;2275;52.208;8.804;2022-07-23T13:54:44;24.60;90.60
4526;DHT22;2275;52.208;8.804;2022-07-23T13:57:11;25.00;90.70
4526;DHT22;2275;52.208;8.804;2022-07-23T13:59:39;25.40;89.90
4526;DHT22;2275;52.208;8.804;2022-07-23T14:02:06;25.80;88.40
4526;DHT22;2275;52.208;8.804;2022-07-23T14:04:34;26.00;88.40
4526;DHT22;2275;52.208;8.804;2022-07-23T14:07:07;25.80;88.80
4526;DHT22;2275;52.208;8.804;2022-07-23T14:09:34;25.80;89.00
4526;DHT22;2275;52.208;8.804;2022-07-23T14:12:02;26.10;86.80
4526;DHT22;2275;52.208;8.804;2022-07-23T14:14:29;25.80;86.80
4526;DHT22;2275;52.208;8.804;2022-07-23T14:16:56;25.60;88.20
4526;DHT22;2275;52.208;8.804;2022-07-23T14:19:30;25.30;88.80
4526;DHT22;2275;52.208;8.804;2022-07-23T14:22:08;25.10;90.30
4526;DHT22;2275;52.208;8.804;2022-07-23T14:24:36;25.50;89.30
4526;DHT22;2275;52.208;8.804;2022-07-23T14:27:03;25.90;88.10
4526;DHT22;2275;52.208;8.804;2022-07-23T14:29:30;26.50;85.10
4526;DHT22;2275;52.208;8.804;2022-07-23T14:31:58;26.30;85.20
4526;DHT22;2275;52.208;8.804;2022-07-23T14:34:25;26.20;86.90
4526;DHT22;2275;52.208;8.804;2022-07-23T14:36:53;26.20;86.50
4526;DHT22;2275;52.208;8.804;2022-07-23T14:39:22;26.40;86.50
4526;DHT22;2275;52.208;8.804;2022-07-23T14:41:50;26.10;87.20
4526;DHT22;2275;52.208;8.804;2022-07-23T14:44:17;26.50;86.60
4526;DHT22;2275;52.208;8.804;2022-07-23T14:46:47;26.70;84.20
4526;DHT22;2275;52.208;8.804;2022-07-23T14:49:16;27.20;84.50
4526;DHT22;2275;52.208;8.804;2022-07-23T14:51:43;27.70;82.10
4526;DHT22;2275;52.208;8.804;2022-07-23T14:54:10;27.80;81.30
4526;DHT22;2275;52.208;8.804;2022-07-23T14:56:37;27.70;79.00
4526;DHT22;2275;52.208;8.804;2022-07-23T14:59:04;27.40;80.80
4526;DHT22;2275;52.208;8.804;2022-07-23T15:01:32;27.20;80.60
4526;DHT22;2275;52.208;8.804;2022-07-23T15:03:59;27.40;82.20
4526;DHT22;2275;52.208;8.804;2022-07-23T15:06:26;27.80;80.50
4526;DHT22;2275;52.208;8.804;2022-07-23T15:08:53;28.40;79.50
4526;DHT22;2275;52.208;8.804;2022-07-23T15:11:20;28.80;78.90
4526;DHT22;2275;52.208;8.804;2022-07-23T15:13:48;28.80;75.30
4526;DHT22;2275;52.208;8.804;2022-07-23T15:16:15;28.20;76.10
4526;DHT22;2275;52.208;8.804;2022-07-23T15:18:44;27.70;78.80
4526;DHT22;2275;52.208;8.804;2022-07-23T15:21:11;27.60;78.00
4526;DHT22;2275;52.208;8.804;2022-07-23T15:23:38;27.40;78.70
4526;DHT22;2275;52.208;8.804;2022-07-23T15:26:06;27.30;79.20
4526;DHT22;2275;52.208;8.804;2022-07-23T15:28:34;27.20;81.20
4526;DHT22;2275;52.208;8.804;2022-07-23T15:31:00;27.10;80.10
4526;DHT22;2275;52.208;8.804;2022-07-23T15:33:27;26.80;83.10
4526;DHT22;2275;52.208;8.804;2022-07-23T15:35:55;26.50;83.20
4526;DHT22;2275;52.208;8.804;2022-07-23T15:38:22;26.20;83.80
4526;DHT22;2275;52.208;8.804;2022-07-23T15:40:50;26.20;83.80
4526;DHT22;2275;52.208;8.804;2022-07-23T15:43:16;26.10;84.40
4526;DHT22;2275;52.208;8.804;2022-07-23T15:45:44;25.80;84.90
4526;DHT22;2275;52.208;8.804;2022-07-23T15:48:12;25.70;84.80
4526;DHT22;2275;52.208;8.804;2022-07-23T15:50:39;25.80;86.10
4526;DHT22;2275;52.208;8.804;2022-07-23T15:53:06;25.90;85.60
4526;DHT22;2275;52.208;8.804;2022-07-23T15:55:33;25.70;86.60
4526;DHT22;2275;52.208;8.804;2022-07-23T15:58:00;25.80;87.10
4526;DHT22;2275;52.208;8.804;2022-07-23T16:00:27;25.60;87.50
4526;DHT22;2275;52.208;8.804;2022-07-23T16:02:55;25.80;86.90
4526;DHT22;2275;52.208;8.804;2022-07-23T16:05:22;25.60;87.40
4526;DHT22;2275;52.208;8.804;2022-07-23T16:07:49;25.60;88.90
4526;DHT22;2275;52.208;8.804;2022-07-23T16:10:16;25.60;87.80
4526;DHT22;2275;52.208;8.804;2022-07-23T16:12:44;25.50;88.40
4526;DHT22;2275;52.208;8.804;2022-07-23T16:15:13;25.40;88.30
4526;DHT22;2275;52.208;8.804;2022-07-23T16:17:41;25.60;88.70
4526;DHT22;2275;52.208;8.804;2022-07-23T16:20:13;25.60;88.70
4526;DHT22;2275;52.208;8.804;2022-07-23T16:22:43;25.60;88.00
4526;DHT22;2275;52.208;8.804;2022-07-23T16:25:10;25.80;88.20
4526;DHT22;2275;52.208;8.804;2022-07-23T16:27:37;25.90;87.60
4526;DHT22;2275;52.208;8.804;2022-07-23T16:30:05;25.60;87.50
4526;DHT22;2275;52.208;8.804;2022-07-23T16:32:32;25.40;90.20
4526;DHT22;2275;52.208;8.804;2022-07-23T16:35:02;25.60;88.60
4526;DHT22;2275;52.208;8.804;2022-07-23T16:37:30;26.10;88.40